createdAt,value
2018-12-02T00:00:24.889Z,5.00
2018-12-02T00:05:28.862Z,5.10
2018-12-02T00:10:32.636Z,5.10
2018-12-02T00:15:38.595Z,5.10
2018-12-02T00:20:42.416Z,5.20
2018-12-02T00:25:46.039Z,5.20
2018-12-02T00:30:49.588Z,5.10
2018-12-02T00:35:53.301Z,5.00
2018-12-02T00:40:56.812Z,5.00
2018-12-02T00:46:00.321Z,5.00
2018-12-02T00:51:03.823Z,5.00
2018-12-02T00:56:06.177Z,4.90
2018-12-02T01:01:10.026Z,4.90
2018-12-02T01:06:14.133Z,5.00
2018-12-02T01:11:17.718Z,5.00
2018-12-02T01:16:21.572Z,4.90
2018-12-02T01:21:25.321Z,4.90
2018-12-02T01:26:28.815Z,4.90
2018-12-02T01:31:32.283Z,5.00
2018-12-02T01:36:35.848Z,5.00
2018-12-02T01:41:40.468Z,5.00
2018-12-02T01:46:44.280Z,5.00
2018-12-02T01:51:47.968Z,5.00
2018-12-02T01:56:51.651Z,5.10
2018-12-02T02:01:55.332Z,5.10
2018-12-02T02:06:59.240Z,5.20
2018-12-02T02:12:03.147Z,5.20
2018-12-02T02:17:07.030Z,5.20
2018-12-02T02:22:10.503Z,5.20
2018-12-02T02:27:14.108Z,5.30
2018-12-02T02:32:17.681Z,5.30
2018-12-02T02:37:21.307Z,5.30
2018-12-02T02:42:25.072Z,5.30
2018-12-02T02:47:29.199Z,5.30
2018-12-02T02:52:33.860Z,5.40
2018-12-02T02:57:37.335Z,5.40
2018-12-02T03:02:41.150Z,5.40
2018-12-02T03:07:44.674Z,5.40
2018-12-02T03:12:50.573Z,5.50
2018-12-02T03:17:54.265Z,5.50
2018-12-02T03:22:57.964Z,5.60
2018-12-02T03:28:01.565Z,5.70
2018-12-02T03:33:05.401Z,5.80
2018-12-02T03:38:08.928Z,5.80
2018-12-02T03:43:12.412Z,5.70
2018-12-02T03:48:17.380Z,5.90
2018-12-02T03:53:21.023Z,6.00
2018-12-02T03:58:24.783Z,5.90
2018-12-02T04:03:28.242Z,5.90
2018-12-02T04:08:31.705Z,6.00
2018-12-02T04:13:35.193Z,6.00
2018-12-02T04:18:38.788Z,6.00
2018-12-02T04:23:42.282Z,6.20
2018-12-02T04:28:45.713Z,6.60
2018-12-02T04:33:49.168Z,6.80
2018-12-02T04:38:52.761Z,6.90
2018-12-02T04:43:56.477Z,6.90
2018-12-02T04:49:00.142Z,6.80
2018-12-02T04:54:03.903Z,6.70
2018-12-02T04:59:07.506Z,6.70
2018-12-02T05:04:11.235Z,6.50
2018-12-02T05:09:14.705Z,6.30
2018-12-02T05:14:18.156Z,6.30
2018-12-02T05:19:21.626Z,6.30
2018-12-02T05:24:25.142Z,6.50
2018-12-02T05:29:28.601Z,6.70
2018-12-02T05:34:32.059Z,7.00
2018-12-02T05:39:35.487Z,7.20
2018-12-02T05:44:39.189Z,7.30
2018-12-02T05:49:43.301Z,7.20
2018-12-02T05:54:47.485Z,7.10
2018-12-02T05:59:51.263Z,7.10
2018-12-02T06:04:54.812Z,7.10
2018-12-02T06:09:58.491Z,7.10
2018-12-02T06:15:02.461Z,7.30
2018-12-02T06:20:11.075Z,7.30
2018-12-02T06:25:14.637Z,7.30
2018-12-02T06:30:20.390Z,7.30
2018-12-02T06:35:24.397Z,7.20
2018-12-02T06:40:28.620Z,7.10
2018-12-02T06:45:32.186Z,6.90
2018-12-02T06:50:35.629Z,6.90
2018-12-02T06:55:44.372Z,6.90
2018-12-02T07:00:52.472Z,6.90
2018-12-02T07:05:56.046Z,6.90
2018-12-02T07:10:59.519Z,7.00
2018-12-02T07:16:03.028Z,7.00
2018-12-02T07:21:09.369Z,7.10
2018-12-02T07:26:13.946Z,7.30
2018-12-02T07:31:17.489Z,7.30
2018-12-02T07:36:20.990Z,7.50
2018-12-02T07:41:25.303Z,7.60
2018-12-02T07:46:29.151Z,7.70
2018-12-02T07:51:33.624Z,7.70
2018-12-02T07:56:37.228Z,7.70
2018-12-02T08:01:40.696Z,7.90
2018-12-02T08:06:44.525Z,7.90
2018-12-02T08:11:47.976Z,7.80
2018-12-02T08:16:51.580Z,7.90
2018-12-02T08:21:55.029Z,7.90
2018-12-02T08:26:58.523Z,7.80
2018-12-02T08:32:02.184Z,7.90
2018-12-02T08:37:06.563Z,8.10
2018-12-02T08:42:10.272Z,8.30
2018-12-02T08:47:15.130Z,8.30
2018-12-02T08:52:18.745Z,8.30
2018-12-02T08:57:22.308Z,8.30
2018-12-02T09:02:25.861Z,8.40
2018-12-02T09:07:29.690Z,8.60
2018-12-02T09:12:33.789Z,8.60
2018-12-02T09:17:37.518Z,8.70
2018-12-02T09:22:41.088Z,8.80
2018-12-02T09:27:45.013Z,8.70
2018-12-02T09:32:48.806Z,8.80
2018-12-02T09:37:53.264Z,8.90
2018-12-02T09:42:56.993Z,9.00
2018-12-02T09:48:01.267Z,9.10
2018-12-02T09:53:05.165Z,9.20
2018-12-02T09:58:12.012Z,9.30
2018-12-02T10:03:16.079Z,9.40
2018-12-02T10:08:19.982Z,9.50
2018-12-02T10:13:24.052Z,9.60
2018-12-02T10:18:27.639Z,9.60
2018-12-02T10:23:32.521Z,9.50
2018-12-02T10:28:37.360Z,9.50
2018-12-02T10:33:41.288Z,9.50
2018-12-02T10:38:45.816Z,9.60
2018-12-02T10:43:51.469Z,9.80
2018-12-02T10:48:55.749Z,10.00
2018-12-02T10:53:59.758Z,10.10
2018-12-02T10:59:04.222Z,10.00
2018-12-02T11:04:08.065Z,10.10
2018-12-02T11:09:13.300Z,10.30
2018-12-02T11:14:17.175Z,10.50
2018-12-02T11:19:22.231Z,10.70
2018-12-02T11:24:26.710Z,10.60
2018-12-02T11:29:31.288Z,10.50
2018-12-02T11:34:35.001Z,10.50
2018-12-02T11:39:38.926Z,10.80
2018-12-02T11:44:42.653Z,11.20
2018-12-02T11:49:46.823Z,11.10
2018-12-02T11:54:51.120Z,10.90
2018-12-02T11:59:54.953Z,10.90
2018-12-02T12:04:59.017Z,10.90
2018-12-02T12:10:02.747Z,11.10
2018-12-02T12:15:08.670Z,11.50
2018-12-02T12:20:14.665Z,12.10
2018-12-02T12:25:18.409Z,12.60
2018-12-02T12:30:27.385Z,12.90
2018-12-02T12:35:31.051Z,12.50
2018-12-02T12:40:36.409Z,12.00
2018-12-02T12:45:40.894Z,11.90
2018-12-02T12:50:44.933Z,11.70
2018-12-02T12:55:50.978Z,11.60
2018-12-02T13:00:52.965Z,11.60
2018-12-02T13:05:56.921Z,11.30
2018-12-02T13:11:00.555Z,11.20
2018-12-02T13:16:04.285Z,11.10
2018-12-02T13:21:07.978Z,11.10
2018-12-02T13:26:11.581Z,11.10
2018-12-02T13:31:15.106Z,11.10
2018-12-02T13:36:27.285Z,11.20
2018-12-02T13:41:31.180Z,11.10
2018-12-02T13:46:35.195Z,11.10
2018-12-02T13:51:38.990Z,11.00
2018-12-02T13:56:42.618Z,11.00
2018-12-02T14:01:46.678Z,11.00
2018-12-02T14:06:50.312Z,10.90
2018-12-02T14:11:54.382Z,11.00
2018-12-02T14:17:02.357Z,10.90
2018-12-02T14:22:06.781Z,10.80
2018-12-02T14:27:11.894Z,10.60
2018-12-02T14:32:17.252Z,10.60
2018-12-02T14:37:21.080Z,10.80
2018-12-02T14:42:24.645Z,11.00
2018-12-02T14:47:28.316Z,10.90
2018-12-02T14:52:32.113Z,10.70
2018-12-02T14:57:35.882Z,10.50
2018-12-02T15:02:39.905Z,10.40
2018-12-02T15:07:45.216Z,10.40
2018-12-02T15:12:49.383Z,10.30
2018-12-02T15:17:53.282Z,10.20
2018-12-02T15:22:57.867Z,10.30
2018-12-02T15:28:01.383Z,10.20
2018-12-02T15:33:06.663Z,10.20
2018-12-02T15:38:10.538Z,10.20
2018-12-02T15:43:14.375Z,10.10
2018-12-02T15:48:19.511Z,10.10
2018-12-02T15:53:24.604Z,10.10
2018-12-02T15:58:28.368Z,10.00
2018-12-02T16:03:31.938Z,10.10
2018-12-02T16:08:35.462Z,10.20
2018-12-02T16:13:39.003Z,10.30
2018-12-02T16:18:42.517Z,10.40
2018-12-02T16:23:46.011Z,10.50
2018-12-02T16:28:49.722Z,10.50
2018-12-02T16:33:53.419Z,10.50
2018-12-02T16:38:57.021Z,10.50
2018-12-02T16:44:00.784Z,10.60
2018-12-02T16:49:04.579Z,10.70
2018-12-02T16:54:08.093Z,10.80
2018-12-02T16:59:16.260Z,10.80
2018-12-02T17:04:20.360Z,10.80
2018-12-02T17:09:23.844Z,10.80
2018-12-02T17:14:27.379Z,10.90
2018-12-02T17:19:32.274Z,10.90
2018-12-02T17:24:35.933Z,10.90
2018-12-02T17:29:41.549Z,11.00
2018-12-02T17:34:44.128Z,11.00
2018-12-02T17:39:50.859Z,11.00
2018-12-02T17:44:54.936Z,10.90
2018-12-02T17:49:58.763Z,10.90
2018-12-02T17:55:03.363Z,10.90
2018-12-02T18:00:13.073Z,10.90
2018-12-02T18:05:18.808Z,10.90
2018-12-02T18:10:22.374Z,11.00
2018-12-02T18:15:26.316Z,11.00
2018-12-02T18:20:31.353Z,10.90
2018-12-02T18:25:36.356Z,10.90
2018-12-02T18:30:40.172Z,10.90
2018-12-02T18:36:16.867Z,10.90
2018-12-02T18:41:29.799Z,10.90
2018-12-02T18:46:34.267Z,11.00
2018-12-02T18:51:38.388Z,11.00
2018-12-02T18:56:42.998Z,11.00
2018-12-02T19:01:46.789Z,11.00
2018-12-02T19:06:50.491Z,10.90
2018-12-02T19:11:54.156Z,11.00
2018-12-02T19:16:57.965Z,11.00
2018-12-02T19:22:03.023Z,11.00
2018-12-02T19:27:07.068Z,11.00
2018-12-02T19:32:10.855Z,11.10
2018-12-02T19:37:14.751Z,11.10
2018-12-02T19:42:18.486Z,11.20
2018-12-02T19:47:22.521Z,11.30
2018-12-02T19:52:26.180Z,11.30
2018-12-02T19:57:31.041Z,11.30
2018-12-02T20:02:35.832Z,11.30
2018-12-02T20:07:39.821Z,11.40
2018-12-02T20:12:43.650Z,11.40
2018-12-02T20:17:47.258Z,11.30
2018-12-02T20:22:53.753Z,11.40
2018-12-02T20:27:59.816Z,11.30
2018-12-02T20:33:03.494Z,11.40
2018-12-02T20:38:07.802Z,11.40
2018-12-02T20:43:11.451Z,11.40
2018-12-02T20:48:15.101Z,11.40
2018-12-02T20:53:19.148Z,11.30
2018-12-02T20:58:22.923Z,11.20
2018-12-02T21:03:29.673Z,11.20
2018-12-02T21:08:33.383Z,11.30
2018-12-02T21:13:37.245Z,11.10
2018-12-02T21:18:41.055Z,11.10
2018-12-02T21:23:47.207Z,11.10
2018-12-02T21:28:53.481Z,11.10
2018-12-02T21:33:59.368Z,11.00
2018-12-02T21:39:02.712Z,11.10
2018-12-02T21:44:09.972Z,11.20
2018-12-02T21:49:14.057Z,11.30
2018-12-02T21:54:17.769Z,11.30
2018-12-02T22:00:09.482Z,11.40
2018-12-02T22:05:13.561Z,11.30
2018-12-02T22:10:19.565Z,11.30
2018-12-02T22:15:23.133Z,11.30
2018-12-02T22:20:26.742Z,11.20
2018-12-02T22:25:32.086Z,11.10
2018-12-02T22:30:35.665Z,11.10
2018-12-02T22:35:39.349Z,11.10
2018-12-02T22:40:42.852Z,11.10
2018-12-02T22:45:46.459Z,11.10
2018-12-02T22:50:50.037Z,11.10
2018-12-02T22:55:55.620Z,11.10
2018-12-02T23:01:04.817Z,11.00
2018-12-02T23:06:09.184Z,10.90
2018-12-02T23:11:12.731Z,11.00
2018-12-02T23:16:16.265Z,11.10
2018-12-02T23:21:19.997Z,11.10
2018-12-02T23:26:23.570Z,11.10
2018-12-02T23:31:27.237Z,11.10
2018-12-02T23:36:30.989Z,11.20
2018-12-02T23:41:36.338Z,11.30
2018-12-02T23:46:40.028Z,11.30
2018-12-02T23:51:44.065Z,11.20
2018-12-02T23:56:48.357Z,11.00
